createdAt,value
2022-08-27T00:01:03.189Z,17.97
2022-08-27T00:05:13.347Z,17.96
2022-08-27T00:09:15.836Z,17.73
2022-08-27T00:13:22.685Z,17.67
2022-08-27T00:17:25.121Z,17.54
2022-08-27T00:21:27.235Z,17.56
2022-08-27T00:25:29.529Z,17.62
2022-08-27T00:29:31.598Z,17.50
2022-08-27T00:33:34.092Z,17.42
2022-08-27T00:37:36.385Z,17.42
2022-08-27T00:41:40.216Z,17.25
2022-08-27T00:45:45.426Z,17.21
2022-08-27T00:49:52.522Z,17.15
2022-08-27T00:53:57.665Z,17.14
2022-08-27T00:58:27.354Z,17.15
2022-08-27T01:02:31.087Z,17.04
2022-08-27T01:06:36.909Z,17.06
2022-08-27T01:10:40.892Z,16.99
2022-08-27T01:14:45.513Z,16.94
2022-08-27T01:18:48.175Z,16.86
2022-08-27T01:22:56.604Z,16.88
2022-08-27T01:27:00.273Z,16.93
2022-08-27T01:31:06.434Z,16.80
2022-08-27T01:35:10.842Z,16.78
2022-08-27T01:39:13.240Z,16.73
2022-08-27T01:43:16.032Z,16.72
2022-08-27T01:47:21.165Z,16.73
2022-08-27T01:51:23.337Z,16.53
2022-08-27T01:55:27.114Z,16.46
2022-08-27T01:59:39.103Z,16.42
2022-08-27T02:03:42.777Z,16.37
2022-08-27T02:07:45.769Z,16.30
2022-08-27T02:11:48.140Z,16.26
2022-08-27T02:15:50.386Z,16.28
2022-08-27T02:19:53.604Z,16.27
2022-08-27T02:28:22.610Z,16.15
2022-08-27T02:32:32.283Z,16.19
2022-08-27T02:36:37.452Z,16.10
2022-08-27T02:40:39.577Z,16.08
2022-08-27T02:44:41.909Z,15.94
2022-08-27T02:48:44.859Z,15.87
2022-08-27T02:52:47.665Z,15.82
2022-08-27T02:56:51.753Z,15.83
2022-08-27T03:00:54.405Z,15.68
2022-08-27T03:04:56.556Z,15.72
2022-08-27T03:08:58.986Z,15.66
2022-08-27T03:13:01.205Z,15.67
2022-08-27T03:17:22.066Z,15.58
2022-08-27T03:21:26.244Z,15.66
2022-08-27T03:25:28.917Z,15.61
2022-08-27T03:29:31.070Z,15.68
2022-08-27T03:33:40.577Z,15.57
2022-08-27T03:37:43.538Z,15.54
2022-08-27T03:41:55.444Z,15.53
2022-08-27T03:46:01.885Z,15.60
2022-08-27T03:50:07.550Z,15.69
2022-08-27T03:54:10.857Z,15.73
2022-08-27T03:58:14.227Z,15.69
2022-08-27T04:02:16.801Z,15.66
2022-08-27T04:06:19.883Z,15.68
2022-08-27T04:10:22.452Z,15.67
2022-08-27T04:14:27.277Z,15.76
2022-08-27T04:18:30.202Z,15.90
2022-08-27T04:22:34.251Z,15.93
2022-08-27T04:26:36.312Z,16.19
2022-08-27T04:30:46.760Z,16.23
2022-08-27T04:34:49.185Z,16.17
2022-08-27T04:38:51.664Z,16.36
2022-08-27T04:42:53.842Z,16.56
2022-08-27T04:46:58.482Z,16.67
2022-08-27T04:51:00.693Z,17.00
2022-08-27T04:55:05.165Z,17.08
2022-08-27T04:59:10.183Z,17.47
2022-08-27T05:03:12.790Z,17.69
2022-08-27T05:07:15.206Z,18.05
2022-08-27T05:11:20.966Z,18.25
2022-08-27T05:15:23.336Z,18.05
2022-08-27T05:19:26.364Z,18.35
2022-08-27T05:23:28.992Z,18.47
2022-08-27T05:27:31.475Z,18.57
2022-08-27T05:31:34.734Z,18.70
2022-08-27T05:35:42.191Z,18.79
2022-08-27T05:39:44.474Z,18.98
2022-08-27T05:43:50.226Z,19.09
2022-08-27T05:47:53.526Z,19.26
2022-08-27T05:51:55.990Z,19.45
2022-08-27T05:55:58.175Z,19.53
2022-08-27T06:00:18.949Z,19.80
2022-08-27T06:04:24.270Z,20.07
2022-08-27T06:08:26.745Z,20.23
2022-08-27T06:12:29.832Z,20.48
2022-08-27T06:16:32.805Z,20.64
2022-08-27T06:20:35.152Z,20.85
2022-08-27T06:24:39.693Z,21.00
2022-08-27T06:28:41.804Z,21.27
2022-08-27T06:32:44.090Z,21.55
2022-08-27T06:36:46.344Z,21.90
2022-08-27T06:40:48.572Z,22.03
2022-08-27T06:44:50.726Z,22.31
2022-08-27T06:48:55.423Z,22.62
2022-08-27T06:52:57.590Z,22.75
2022-08-27T06:57:00.796Z,22.94
2022-08-27T07:01:23.431Z,23.24
2022-08-27T07:05:26.882Z,23.46
2022-08-27T07:09:32.174Z,23.47
2022-08-27T07:13:35.482Z,23.73
2022-08-27T07:17:37.567Z,23.68
2022-08-27T07:21:40.113Z,24.07
2022-08-27T07:25:42.446Z,24.19
2022-08-27T07:29:44.843Z,24.31
2022-08-27T07:33:52.832Z,24.62
2022-08-27T07:37:55.706Z,25.00
2022-08-27T07:42:16.472Z,25.09
2022-08-27T07:46:22.213Z,25.25
2022-08-27T07:50:24.526Z,25.17
2022-08-27T07:54:27.930Z,25.38
2022-08-27T07:58:30.305Z,25.50
2022-08-27T08:02:32.692Z,25.44
2022-08-27T08:06:38.605Z,25.77
2022-08-27T08:10:41.064Z,26.05
2022-08-27T08:14:43.477Z,26.12
2022-08-27T08:18:46.972Z,26.14
2022-08-27T08:22:49.242Z,26.29
2022-08-27T08:26:51.732Z,26.40
2022-08-27T08:30:55.266Z,26.60
2022-08-27T08:35:00.142Z,26.69
2022-08-27T08:39:03.373Z,26.64
2022-08-27T08:43:10.382Z,27.08
2022-08-27T08:47:19.637Z,27.00
2022-08-27T08:51:42.628Z,27.21
2022-08-27T08:55:52.192Z,27.19
2022-08-27T09:00:02.746Z,27.49
2022-08-27T09:04:09.425Z,27.40
2022-08-27T09:08:34.162Z,27.49
2022-08-27T09:12:38.926Z,27.57
2022-08-27T09:16:41.411Z,27.89
2022-08-27T09:20:50.305Z,27.91
2022-08-27T09:25:16.784Z,27.81
2022-08-27T09:29:25.426Z,28.03
2022-08-27T09:33:27.839Z,28.40
2022-08-27T09:37:54.770Z,28.46
2022-08-27T09:41:57.514Z,28.59
2022-08-27T09:46:02.797Z,28.80
2022-08-27T09:50:08.845Z,28.95
2022-08-27T09:54:12.301Z,28.77
2022-08-27T09:58:24.963Z,29.04
2022-08-27T10:02:27.950Z,29.25
2022-08-27T10:06:32.154Z,29.56
2022-08-27T10:11:07.011Z,29.64
2022-08-27T10:15:12.370Z,29.60
2022-08-27T10:19:17.516Z,29.76
2022-08-27T10:23:30.480Z,29.81
2022-08-27T10:27:59.786Z,29.64
2022-08-27T10:32:21.530Z,29.54
2022-08-27T10:36:42.191Z,29.65
2022-08-27T10:40:56.519Z,29.44
2022-08-27T10:45:30.697Z,29.96
2022-08-27T10:49:53.082Z,30.00
2022-08-27T10:54:16.751Z,30.25
2022-08-27T10:58:52.246Z,30.06
2022-08-27T11:03:02.583Z,29.88
2022-08-27T11:07:38.408Z,30.32
2022-08-27T11:16:19.414Z,30.38
2022-08-27T11:20:21.599Z,30.73
2022-08-27T11:24:48.032Z,30.88
2022-08-27T11:28:57.405Z,30.57
2022-08-27T11:33:35.264Z,30.65
2022-08-27T11:37:58.852Z,30.73
2022-08-27T11:42:08.916Z,31.29
2022-08-27T11:46:12.471Z,30.89
2022-08-27T11:50:19.825Z,30.90
2022-08-27T11:54:47.207Z,30.93
2022-08-27T11:58:53.275Z,31.20
2022-08-27T12:03:03.315Z,31.39
2022-08-27T12:07:14.832Z,31.77
2022-08-27T12:11:16.852Z,31.62
2022-08-27T12:15:44.646Z,30.96
2022-08-27T12:20:19.002Z,30.45
2022-08-27T12:24:24.822Z,29.78
2022-08-27T12:28:28.104Z,29.43
2022-08-27T12:32:37.793Z,29.20
2022-08-27T12:36:39.914Z,29.41
2022-08-27T12:40:58.113Z,29.83
2022-08-27T12:45:00.503Z,29.86
2022-08-27T12:49:36.164Z,29.94
2022-08-27T12:53:51.317Z,29.64
2022-08-27T12:58:18.155Z,29.25
2022-08-27T13:02:40.980Z,28.86
2022-08-27T13:06:46.038Z,28.56
2022-08-27T13:10:48.391Z,28.28
2022-08-27T13:14:57.225Z,28.21
2022-08-27T13:19:00.446Z,27.99
2022-08-27T13:23:02.805Z,27.98
2022-08-27T13:27:06.730Z,28.47
2022-08-27T13:31:11.358Z,29.18
2022-08-27T13:35:13.674Z,30.05
2022-08-27T13:39:16.213Z,30.48
2022-08-27T13:43:19.114Z,30.72
2022-08-27T13:47:25.119Z,30.95
2022-08-27T13:51:30.719Z,30.67
2022-08-27T13:55:33.708Z,30.10
2022-08-27T13:59:43.053Z,29.72
2022-08-27T14:03:56.625Z,29.39
2022-08-27T14:08:14.859Z,29.12
2022-08-27T14:12:32.735Z,28.94
2022-08-27T14:16:37.052Z,29.15
2022-08-27T14:20:39.992Z,29.55
2022-08-27T14:24:42.361Z,29.99
2022-08-27T14:28:46.349Z,30.49
2022-08-27T14:32:50.340Z,30.83
2022-08-27T14:36:58.945Z,31.31
2022-08-27T14:41:01.270Z,31.45
2022-08-27T14:45:04.118Z,31.20
2022-08-27T14:49:12.969Z,31.31
2022-08-27T14:53:16.042Z,31.22
2022-08-27T14:57:19.562Z,31.26
2022-08-27T15:01:26.522Z,31.17
2022-08-27T15:05:28.813Z,30.99
2022-08-27T15:09:31.391Z,30.91
2022-08-27T15:13:33.706Z,30.78
2022-08-27T15:17:40.906Z,30.50
2022-08-27T15:21:47.504Z,29.98
2022-08-27T15:25:50.068Z,29.31
2022-08-27T15:29:52.311Z,28.76
2022-08-27T15:33:54.752Z,28.43
2022-08-27T15:37:57.801Z,28.07
2022-08-27T15:42:06.798Z,27.78
2022-08-27T15:46:10.616Z,27.55
2022-08-27T15:50:15.453Z,27.26
2022-08-27T15:54:19.072Z,27.05
2022-08-27T15:58:21.200Z,27.30
2022-08-27T16:02:25.570Z,28.35
2022-08-27T16:06:28.132Z,29.56
2022-08-27T16:10:30.310Z,29.80
2022-08-27T16:14:32.550Z,28.88
2022-08-27T16:18:36.784Z,28.17
2022-08-27T16:22:40.141Z,27.75
2022-08-27T16:26:42.156Z,27.38
2022-08-27T16:30:44.565Z,27.15
2022-08-27T16:34:55.335Z,26.96
2022-08-27T16:39:00.382Z,26.76
2022-08-27T16:43:02.371Z,26.59
2022-08-27T16:47:06.267Z,26.39
2022-08-27T16:51:24.423Z,26.20
2022-08-27T16:55:26.765Z,25.94
2022-08-27T16:59:28.936Z,25.71
2022-08-27T17:03:31.383Z,25.56
2022-08-27T17:07:33.566Z,25.31
2022-08-27T17:11:39.591Z,25.12
2022-08-27T17:15:42.007Z,24.91
2022-08-27T17:19:45.558Z,24.71
2022-08-27T17:23:50.319Z,24.52
2022-08-27T17:27:55.683Z,24.33
2022-08-27T17:32:01.283Z,24.13
2022-08-27T17:36:04.905Z,23.95
2022-08-27T17:40:10.289Z,23.81
2022-08-27T17:44:21.689Z,23.67
2022-08-27T17:48:26.593Z,23.53
2022-08-27T17:52:29.438Z,23.43
2022-08-27T17:56:31.843Z,23.36
2022-08-27T18:00:34.085Z,23.17
2022-08-27T18:04:37.861Z,23.06
2022-08-27T18:08:40.092Z,22.98
2022-08-27T18:12:43.592Z,22.80
2022-08-27T18:16:46.291Z,22.76
2022-08-27T18:20:48.726Z,22.67
2022-08-27T18:24:54.599Z,22.48
2022-08-27T18:28:58.242Z,22.44
2022-08-27T18:33:02.038Z,22.31
2022-08-27T18:37:04.098Z,22.30
2022-08-27T18:41:08.392Z,22.12
2022-08-27T18:45:14.605Z,22.07
2022-08-27T18:49:16.800Z,21.91
2022-08-27T18:53:22.570Z,21.76
2022-08-27T18:57:24.828Z,21.64
2022-08-27T19:01:28.275Z,21.45
2022-08-27T19:05:30.682Z,21.37
2022-08-27T19:09:32.856Z,21.18
2022-08-27T19:13:35.390Z,21.08
2022-08-27T19:17:38.587Z,20.84
2022-08-27T19:21:41.370Z,20.71
2022-08-27T19:25:47.826Z,20.66
2022-08-27T19:29:51.478Z,20.51
2022-08-27T19:33:54.630Z,20.28
2022-08-27T19:37:57.468Z,20.13
2022-08-27T19:42:00.257Z,20.05
2022-08-27T19:46:04.710Z,19.92
2022-08-27T19:50:08.794Z,19.77
2022-08-27T19:54:11.035Z,19.65
2022-08-27T19:58:14.255Z,19.58
2022-08-27T20:02:16.512Z,19.44
2022-08-27T20:06:18.664Z,19.38
2022-08-27T20:10:36.079Z,19.28
2022-08-27T20:14:38.962Z,19.14
2022-08-27T20:18:43.791Z,18.90
2022-08-27T20:22:45.944Z,18.81
2022-08-27T20:26:48.177Z,18.61
2022-08-27T20:30:50.412Z,18.46
2022-08-27T20:34:53.701Z,18.30
2022-08-27T20:38:56.151Z,18.28
2022-08-27T20:43:01.162Z,18.26
2022-08-27T20:47:04.648Z,18.33
2022-08-27T20:51:06.951Z,18.20
2022-08-27T20:55:10.004Z,18.04
2022-08-27T20:59:30.824Z,18.01
2022-08-27T21:03:32.807Z,17.83
2022-08-27T21:07:34.924Z,17.90
2022-08-27T21:11:37.030Z,17.80
2022-08-27T21:15:39.508Z,17.68
2022-08-27T21:19:41.763Z,17.67
2022-08-27T21:23:44.105Z,17.49
2022-08-27T21:27:46.055Z,17.44
2022-08-27T21:31:48.495Z,17.39
2022-08-27T21:35:50.750Z,17.26
2022-08-27T21:39:53.062Z,17.14
2022-08-27T21:43:55.205Z,17.13
2022-08-27T21:47:58.329Z,17.05
2022-08-27T21:52:03.476Z,16.99
2022-08-27T21:56:06.630Z,16.97
2022-08-27T22:00:36.628Z,16.86
2022-08-27T22:04:39.107Z,16.77
2022-08-27T22:08:42.602Z,16.75
2022-08-27T22:12:44.885Z,16.67
2022-08-27T22:16:47.443Z,16.53
2022-08-27T22:20:50.943Z,16.55
2022-08-27T22:24:53.061Z,16.59
2022-08-27T22:28:55.338Z,16.46
2022-08-27T22:32:57.463Z,16.44
2022-08-27T22:36:59.907Z,16.39
2022-08-27T22:41:02.041Z,16.27
2022-08-27T22:45:05.302Z,16.23
2022-08-27T22:49:07.301Z,16.14
2022-08-27T22:53:09.786Z,16.18
2022-08-27T22:57:12.078Z,16.10
2022-08-27T23:01:20.239Z,16.09
2022-08-27T23:05:24.561Z,16.03
2022-08-27T23:09:29.577Z,16.00
2022-08-27T23:13:32.302Z,16.00
2022-08-27T23:17:34.860Z,15.83
2022-08-27T23:21:37.449Z,15.92
2022-08-27T23:25:58.265Z,15.92
2022-08-27T23:30:02.180Z,15.84
2022-08-27T23:34:05.241Z,15.78
2022-08-27T23:38:09.345Z,15.59
2022-08-27T23:42:12.244Z,15.66
2022-08-27T23:46:14.303Z,15.52
2022-08-27T23:50:17.054Z,15.57
2022-08-27T23:54:19.238Z,15.61
2022-08-27T23:58:21.562Z,15.65
